Aérodrome :
LOGIN :

S'inscrire | Disclaimer

   EN    FR    IT 

 










Légende :    VFR   VFR Marginal   IFR   IFR Intensif   IFR Très Intensif
Visi : 
Plafond : 
>= 8 km
>= 3000ft
5 à 8 km
1000 à 3000 ft
1500m à 5 km
500 à 1000 ft
800 à 1500m
200 à 500 ft
< 800m
< 200 ft
Symboles :   Orages  Brouillard  Fortes neiges  Fortes précipitations  Vent > 20 kt
SIGMETs :   Divers  Orages  Givrage  Turbulence  Onde Orograph.  Cendres Volcan.







- Altitude de l'aérodrome : 1906 ft
- Code IATA : INN


LOWI - Innsbruck

DERNIER METAR :
  • 260350Z 18003KT 120V240 9999 FEW025 SCT060 BKN110 08/05 Q1004 NOSIG

METARs EXPIRÉS :
  • 260320Z AUTO VRB02KT 9999 FEW048 OVC110 08/05 Q1004
  • 260250Z AUTO VRB03KT 9999 FEW034 OVC110 08/05 Q1004
  • 260220Z AUTO VRB06KT 9999 FEW050 SCT110 BKN120 08/05 Q1004
  • 260150Z AUTO 09004KT 020V170 9999 FEW060 SCT110 BKN150 09/05 Q1004
  • 260120Z AUTO VRB03KT 9999 FEW048 SCT110 BKN130 09/05 Q1004

TAF TAF LOWI
Valide du 26 à 00h jusqu'au 27 à 00h UTC


252315Z 2600/2624 VRB15KT 9999 SCT060 BKN090 TX11/2612Z TN03/2624Z
BECMG 2602/2604 27005KT -SHRA SCT040 BKN060
TEMPO 2609/2614 29012KT SHRA SCT020 BKN050
BECMG 2614/2616 30002KT RA SCT015 BKN030
Pas de NOTAMs connus pour ce terrain.



MET'MAP, la Météo Aéronautique d'un coup d'oeil ! - Copyright ORBIFLY Décembre 2007 - Disclaimer

ORBIFLY MET'MAP TEAM :

Programmation & Développement : Alexandra Zaïnal
Conception & Développement : Baudouin d'Aumeries
Co-Programmation & Développement : Marc-Olivier Méhu
Soutien technique & logistique : Manuel Goepfert

Contact : metmap@orbifly.com




SOURCES & CREDITS :

   NOAA